createdAt,value
2022-10-23T00:01:23.374Z,17.86
2022-10-23T00:03:53.116Z,17.70
2022-10-23T00:06:20.833Z,17.55
2022-10-23T00:08:48.997Z,17.59
2022-10-23T00:11:21.390Z,17.53
2022-10-23T00:13:49.485Z,17.70
2022-10-23T00:16:16.783Z,17.77
2022-10-23T00:18:44.219Z,18.15
2022-10-23T00:21:13.893Z,18.07
2022-10-23T00:23:41.660Z,18.02
2022-10-23T00:26:11.326Z,18.03
2022-10-23T00:28:38.548Z,18.10
2022-10-23T00:31:06.755Z,18.10
2022-10-23T00:33:34.167Z,18.13
2022-10-23T00:36:04.534Z,18.16
2022-10-23T00:38:31.738Z,18.07
2022-10-23T00:40:58.894Z,18.19
2022-10-23T00:43:28.474Z,18.14
2022-10-23T00:45:56.230Z,18.08
2022-10-23T00:48:23.721Z,17.95
2022-10-23T00:50:51.049Z,18.03
2022-10-23T00:53:19.361Z,18.06
2022-10-23T00:55:48.690Z,17.99
2022-10-23T00:58:18.358Z,17.92
2022-10-23T01:00:47.597Z,17.90
2022-10-23T01:03:16.187Z,17.92
2022-10-23T01:06:14.523Z,18.04
2022-10-23T01:08:54.391Z,17.91
2022-10-23T01:11:43.659Z,17.92
2022-10-23T01:14:16.733Z,18.19
2022-10-23T01:16:56.855Z,18.08
2022-10-23T01:19:33.183Z,17.98
2022-10-23T01:22:16.897Z,18.09
2022-10-23T01:24:58.615Z,17.95
2022-10-23T01:27:27.810Z,18.09
2022-10-23T01:30:01.006Z,18.10
2022-10-23T01:32:55.200Z,18.07
2022-10-23T01:35:41.165Z,17.76
2022-10-23T01:38:20.690Z,17.84
2022-10-23T01:40:57.655Z,17.68
2022-10-23T01:43:29.734Z,17.85
2022-10-23T01:46:01.368Z,17.75
2022-10-23T01:48:30.227Z,17.66
2022-10-23T01:51:00.532Z,17.74
2022-10-23T01:53:30.720Z,17.72
2022-10-23T01:55:59.296Z,17.99
2022-10-23T01:58:28.227Z,17.95
2022-10-23T02:00:58.466Z,18.06
2022-10-23T02:03:27.294Z,17.83
2022-10-23T02:05:54.955Z,17.96
2022-10-23T02:08:22.396Z,17.93
2022-10-23T02:10:55.004Z,17.96
2022-10-23T02:13:22.187Z,17.88
2022-10-23T02:16:17.941Z,17.65
2022-10-23T02:19:03.496Z,17.65
2022-10-23T02:21:36.255Z,17.66
2022-10-23T02:24:07.763Z,17.68
2022-10-23T02:26:44.102Z,17.68
2022-10-23T02:29:16.032Z,17.79
2022-10-23T02:31:45.976Z,17.72
2022-10-23T02:34:13.265Z,17.72
2022-10-23T02:36:41.044Z,17.78
2022-10-23T02:39:08.543Z,17.81
2022-10-23T02:41:53.691Z,17.65
2022-10-23T02:44:33.193Z,17.65
2022-10-23T02:47:14.428Z,17.73
2022-10-23T02:49:47.465Z,17.77
2022-10-23T02:52:29.413Z,17.49
2022-10-23T02:55:11.062Z,17.63
2022-10-23T02:58:08.937Z,17.33
2022-10-23T03:00:44.156Z,17.24
2022-10-23T03:03:16.174Z,17.15
2022-10-23T03:05:44.973Z,17.26
2022-10-23T03:08:14.666Z,17.36
2022-10-23T03:10:42.705Z,17.26
2022-10-23T03:13:10.913Z,16.97
2022-10-23T03:15:42.942Z,17.08
2022-10-23T03:18:13.473Z,17.28
2022-10-23T03:20:45.132Z,17.47
2022-10-23T03:23:13.950Z,17.26
2022-10-23T03:25:41.217Z,17.07
2022-10-23T03:28:08.901Z,17.18
2022-10-23T03:30:36.592Z,17.21
2022-10-23T03:33:03.917Z,17.16
2022-10-23T03:35:32.095Z,17.16
2022-10-23T03:37:59.326Z,17.14
2022-10-23T03:40:27.119Z,17.02
2022-10-23T03:42:54.343Z,17.05
2022-10-23T03:45:21.685Z,17.07
2022-10-23T03:47:50.803Z,17.09
2022-10-23T03:50:18.994Z,17.06
2022-10-23T03:52:46.383Z,17.02
2022-10-23T03:55:14.816Z,17.00
2022-10-23T03:57:42.156Z,17.26
2022-10-23T04:00:13.161Z,17.12
2022-10-23T04:02:48.094Z,17.10
2022-10-23T04:05:16.600Z,17.05
2022-10-23T04:07:52.991Z,17.01
2022-10-23T04:10:20.397Z,17.14
2022-10-23T04:12:47.626Z,17.28
2022-10-23T04:15:14.940Z,17.35
2022-10-23T04:17:45.515Z,17.44
2022-10-23T04:20:13.361Z,17.35
2022-10-23T04:22:40.887Z,17.47
2022-10-23T04:25:08.698Z,17.42
2022-10-23T04:27:35.992Z,17.40
2022-10-23T04:30:03.988Z,17.15
2022-10-23T04:32:31.468Z,17.26
2022-10-23T04:34:58.716Z,17.28
2022-10-23T04:37:26.081Z,17.40
2022-10-23T04:39:53.375Z,17.35
2022-10-23T04:42:20.676Z,17.24
2022-10-23T04:44:48.183Z,17.26
2022-10-23T04:47:15.480Z,17.44
2022-10-23T04:50:08.921Z,17.31
2022-10-23T04:52:57.059Z,17.32
2022-10-23T04:55:55.413Z,17.40
2022-10-23T04:58:35.232Z,17.47
2022-10-23T05:01:02.826Z,17.71
2022-10-23T05:03:30.208Z,17.82
2022-10-23T05:05:57.717Z,17.56
2022-10-23T05:08:35.912Z,17.38
2022-10-23T05:11:08.984Z,17.45
2022-10-23T05:13:41.878Z,17.46
2022-10-23T05:16:09.370Z,17.39
2022-10-23T05:18:42.811Z,17.20
2022-10-23T05:21:13.887Z,17.22
2022-10-23T05:23:44.528Z,17.39
2022-10-23T05:26:13.783Z,17.45
2022-10-23T05:28:43.750Z,17.55
2022-10-23T05:31:14.987Z,17.55
2022-10-23T05:33:45.751Z,17.38
2022-10-23T05:36:13.557Z,17.37
2022-10-23T05:38:41.173Z,17.61
2022-10-23T05:41:14.907Z,17.50
2022-10-23T05:43:43.385Z,17.50
2022-10-23T05:46:30.543Z,17.30
2022-10-23T05:49:27.037Z,17.51
2022-10-23T05:52:14.304Z,17.41
2022-10-23T05:55:01.930Z,17.30
2022-10-23T05:57:47.552Z,17.47
2022-10-23T06:00:18.313Z,17.30
2022-10-23T06:02:54.375Z,17.32
2022-10-23T06:05:31.836Z,17.46
2022-10-23T06:08:16.978Z,17.51
2022-10-23T06:10:44.475Z,17.42
2022-10-23T06:13:12.640Z,17.30
2022-10-23T06:15:40.082Z,17.32
2022-10-23T06:18:26.633Z,17.25
2022-10-23T06:21:02.401Z,17.14
2022-10-23T06:23:34.539Z,16.99
2022-10-23T06:26:05.545Z,17.18
2022-10-23T06:28:40.933Z,17.15
2022-10-23T06:31:13.750Z,17.19
2022-10-23T06:33:41.258Z,17.30
2022-10-23T06:36:10.733Z,17.33
2022-10-23T06:38:40.630Z,17.38
2022-10-23T06:41:14.058Z,17.23
2022-10-23T06:43:41.760Z,17.23
2022-10-23T06:46:18.777Z,17.41
2022-10-23T06:49:04.895Z,17.31
2022-10-23T06:51:38.402Z,17.33
2022-10-23T06:54:10.972Z,17.51
2022-10-23T06:56:50.647Z,17.42
2022-10-23T06:59:22.166Z,17.29
2022-10-23T07:01:51.826Z,17.50
2022-10-23T07:04:19.217Z,17.44
2022-10-23T07:06:46.512Z,17.40
2022-10-23T07:09:14.610Z,17.24
2022-10-23T07:12:07.855Z,17.30
2022-10-23T07:14:43.964Z,17.34
2022-10-23T07:17:12.082Z,17.11
2022-10-23T07:19:39.306Z,17.33
2022-10-23T07:22:14.924Z,17.31
2022-10-23T07:24:47.397Z,17.46
2022-10-23T07:27:28.056Z,17.39
2022-10-23T07:29:57.601Z,17.38
2022-10-23T07:32:28.577Z,17.45
2022-10-23T07:38:06.895Z,17.40
2022-10-23T07:40:37.983Z,17.19
2022-10-23T07:43:07.237Z,17.30
2022-10-23T07:45:35.288Z,17.42
2022-10-23T07:48:09.520Z,17.37
2022-10-23T07:51:08.010Z,17.40
2022-10-23T07:53:39.572Z,17.21
2022-10-23T07:56:29.696Z,17.42
2022-10-23T07:59:16.351Z,17.61
2022-10-23T08:01:51.620Z,17.54
2022-10-23T08:04:21.515Z,17.50
2022-10-23T08:07:01.298Z,17.51
2022-10-23T08:09:32.062Z,17.76
2022-10-23T08:12:00.837Z,17.53
2022-10-23T08:14:28.707Z,17.39
2022-10-23T08:16:56.643Z,17.61
2022-10-23T08:19:55.916Z,17.85
2022-10-23T08:22:25.116Z,17.99
2022-10-23T08:24:52.333Z,18.05
2022-10-23T08:27:19.995Z,18.03
2022-10-23T08:29:48.362Z,18.10
2022-10-23T08:32:15.553Z,17.93
2022-10-23T08:34:51.963Z,17.91
2022-10-23T08:37:19.338Z,18.02
2022-10-23T08:39:50.100Z,18.06
2022-10-23T08:42:27.059Z,18.41
2022-10-23T08:45:07.599Z,18.52
2022-10-23T08:47:45.923Z,18.21
2022-10-23T08:50:37.047Z,18.11
2022-10-23T08:53:16.589Z,18.27
2022-10-23T08:55:47.305Z,18.27
2022-10-23T08:58:39.203Z,18.55
2022-10-23T09:01:44.371Z,18.62
2022-10-23T09:04:13.742Z,18.61
2022-10-23T09:07:03.599Z,18.82
2022-10-23T09:09:49.728Z,18.86
2022-10-23T09:12:21.528Z,18.67
2022-10-23T09:15:19.686Z,18.85
2022-10-23T09:17:48.170Z,19.00
2022-10-23T09:20:21.637Z,18.89
2022-10-23T09:22:50.926Z,18.87
2022-10-23T09:25:25.161Z,18.98
2022-10-23T09:27:56.700Z,19.18
2022-10-23T09:30:33.079Z,19.41
2022-10-23T09:33:01.284Z,19.34
2022-10-23T09:35:30.330Z,19.47
2022-10-23T09:37:57.873Z,19.52
2022-10-23T09:40:28.997Z,19.47
2022-10-23T09:43:17.741Z,19.50
2022-10-23T09:45:56.929Z,19.62
2022-10-23T09:48:24.182Z,19.70
2022-10-23T09:50:54.429Z,19.59
2022-10-23T09:53:31.697Z,19.81
2022-10-23T09:56:11.664Z,19.95
2022-10-23T09:58:43.720Z,20.01
2022-10-23T10:01:32.783Z,20.13
2022-10-23T10:04:19.654Z,20.23
2022-10-23T10:06:57.371Z,20.34
2022-10-23T10:09:24.663Z,20.32
2022-10-23T10:11:54.581Z,20.50
2022-10-23T10:14:44.066Z,20.62
2022-10-23T10:17:23.321Z,20.64
2022-10-23T10:20:03.795Z,20.57
2022-10-23T10:22:46.064Z,20.73
2022-10-23T10:25:52.134Z,20.86
2022-10-23T10:28:46.897Z,20.79
2022-10-23T10:31:24.129Z,20.48
2022-10-23T10:34:19.823Z,20.69
2022-10-23T10:36:51.589Z,20.79
2022-10-23T10:39:28.238Z,20.89
2022-10-23T10:42:17.174Z,20.92
2022-10-23T10:44:56.137Z,20.91
2022-10-23T10:47:32.017Z,20.89
2022-10-23T10:50:02.798Z,20.89
2022-10-23T10:53:24.008Z,21.14
2022-10-23T10:55:54.023Z,21.28
2022-10-23T10:58:28.413Z,21.27
2022-10-23T11:01:00.783Z,21.38
2022-10-23T11:03:39.832Z,21.32
2022-10-23T11:06:13.715Z,21.06
2022-10-23T11:08:56.220Z,21.25
2022-10-23T11:11:38.246Z,21.48
2022-10-23T11:14:37.822Z,21.37
2022-10-23T11:17:12.118Z,21.52
2022-10-23T11:19:48.689Z,21.62
2022-10-23T11:22:28.447Z,21.76
2022-10-23T11:24:58.542Z,21.61
2022-10-23T11:27:46.271Z,21.51
2022-10-23T11:30:31.283Z,21.66
2022-10-23T11:33:01.502Z,21.87
2022-10-23T11:35:37.632Z,22.00
2022-10-23T11:38:23.888Z,21.94
2022-10-23T11:40:55.747Z,22.18
2022-10-23T11:43:35.718Z,22.02
2022-10-23T11:46:14.953Z,21.91
2022-10-23T11:48:44.071Z,22.15
2022-10-23T11:51:37.141Z,22.37
2022-10-23T11:54:10.084Z,22.37
2022-10-23T11:56:38.535Z,22.34
2022-10-23T11:59:23.994Z,22.50
2022-10-23T12:01:52.305Z,22.50
2022-10-23T12:04:26.750Z,22.66
2022-10-23T12:06:59.291Z,22.68
2022-10-23T12:09:45.167Z,22.68
2022-10-23T12:12:12.323Z,22.70
2022-10-23T12:14:44.006Z,22.55
2022-10-23T12:17:23.611Z,22.71
2022-10-23T12:20:01.395Z,22.79
2022-10-23T12:22:39.120Z,22.72
2022-10-23T12:25:14.144Z,22.73
2022-10-23T12:28:00.180Z,22.70
2022-10-23T12:30:38.967Z,22.84
2022-10-23T12:33:27.712Z,22.93
2022-10-23T12:36:28.152Z,22.98
2022-10-23T12:38:58.594Z,22.99
2022-10-23T12:41:29.935Z,22.93
2022-10-23T12:44:01.333Z,22.95
2022-10-23T12:46:37.095Z,23.10
2022-10-23T12:49:18.632Z,23.23
2022-10-23T12:51:46.469Z,23.11
2022-10-23T12:54:18.864Z,23.22
2022-10-23T12:56:46.835Z,23.10
2022-10-23T12:59:21.300Z,23.23
2022-10-23T13:01:52.825Z,23.20
2022-10-23T13:04:29.124Z,23.37
2022-10-23T13:06:58.553Z,23.34
2022-10-23T13:09:33.096Z,23.24
2022-10-23T13:13:06.505Z,23.07
2022-10-23T13:15:41.944Z,23.04
2022-10-23T13:18:11.627Z,22.96
2022-10-23T13:20:42.451Z,22.70
2022-10-23T13:23:18.849Z,22.50
2022-10-23T13:26:15.843Z,22.33
2022-10-23T13:28:44.886Z,22.47
2022-10-23T13:31:12.387Z,22.40
2022-10-23T13:33:41.752Z,22.61
2022-10-23T13:36:14.527Z,22.60
2022-10-23T13:38:43.684Z,22.73
2022-10-23T13:41:15.190Z,22.29
2022-10-23T13:43:43.446Z,22.38
2022-10-23T13:46:25.606Z,22.27
2022-10-23T13:48:53.043Z,22.23
2022-10-23T13:51:23.022Z,22.41
2022-10-23T13:53:52.581Z,22.40
2022-10-23T13:56:21.426Z,22.52
2022-10-23T13:58:49.177Z,22.32
2022-10-23T14:01:29.869Z,22.06
2022-10-23T14:03:57.932Z,22.25
2022-10-23T14:06:25.269Z,22.09
2022-10-23T14:08:52.483Z,22.13
2022-10-23T14:11:20.250Z,22.18
2022-10-23T14:13:48.164Z,22.33
2022-10-23T14:16:18.993Z,22.35
2022-10-23T14:18:46.280Z,22.48
2022-10-23T14:21:15.357Z,22.26
2022-10-23T14:23:42.687Z,22.27
2022-10-23T14:26:12.652Z,22.09
2022-10-23T14:28:41.818Z,22.08
2022-10-23T14:31:15.274Z,22.24
2022-10-23T14:33:43.491Z,22.29
2022-10-23T14:36:11.172Z,22.44
2022-10-23T14:38:38.567Z,22.45
2022-10-23T14:41:16.481Z,22.30
2022-10-23T14:43:43.825Z,22.55
2022-10-23T14:46:15.830Z,22.60
2022-10-23T14:48:46.129Z,22.64
2022-10-23T14:51:26.867Z,22.58
2022-10-23T14:53:58.830Z,22.50
2022-10-23T14:56:26.449Z,22.43
2022-10-23T14:58:54.620Z,22.54
2022-10-23T15:01:21.932Z,22.80
2022-10-23T15:03:54.705Z,22.71
2022-10-23T15:06:21.924Z,22.55
2022-10-23T15:08:54.971Z,22.56
2022-10-23T15:11:23.104Z,22.73
2022-10-23T15:13:50.686Z,22.79
2022-10-23T15:16:18.380Z,22.76
2022-10-23T15:18:45.784Z,22.94
2022-10-23T15:21:13.645Z,22.93
2022-10-23T15:23:43.108Z,22.67
2022-10-23T15:26:13.612Z,22.65
2022-10-23T15:28:40.770Z,22.70
2022-10-23T15:31:25.928Z,22.89
2022-10-23T15:33:53.166Z,22.92
2022-10-23T15:36:20.658Z,22.82
2022-10-23T15:38:47.820Z,22.83
2022-10-23T15:41:17.836Z,22.84
2022-10-23T15:43:45.230Z,22.94
2022-10-23T15:46:12.465Z,23.09
2022-10-23T15:48:39.712Z,23.17
2022-10-23T15:51:06.897Z,23.14
2022-10-23T15:53:34.098Z,23.11
2022-10-23T15:56:01.314Z,23.01
2022-10-23T15:58:28.551Z,22.86
2022-10-23T16:00:55.882Z,22.76
2022-10-23T16:03:23.074Z,22.69
2022-10-23T16:05:50.261Z,22.61
2022-10-23T16:08:17.518Z,22.68
2022-10-23T16:10:44.715Z,22.73
2022-10-23T16:13:11.990Z,22.54
2022-10-23T16:15:39.150Z,22.72
2022-10-23T16:18:06.623Z,22.65
2022-10-23T16:20:34.001Z,22.68
2022-10-23T16:23:01.259Z,22.65
2022-10-23T16:25:28.619Z,22.67
2022-10-23T16:27:58.908Z,22.68
2022-10-23T16:30:26.184Z,22.79
2022-10-23T16:32:54.853Z,22.51
2022-10-23T16:35:22.722Z,22.52
2022-10-23T16:38:01.703Z,22.52
2022-10-23T16:40:28.906Z,22.31
2022-10-23T16:43:14.469Z,22.22
2022-10-23T16:45:46.016Z,22.51
2022-10-23T16:48:13.827Z,22.41
2022-10-23T16:50:41.918Z,22.13
2022-10-23T16:53:09.150Z,22.11
2022-10-23T16:55:40.492Z,22.08
2022-10-23T16:58:07.728Z,22.04
2022-10-23T17:00:35.439Z,22.06
2022-10-23T17:03:04.160Z,22.08
2022-10-23T17:05:35.309Z,21.96
2022-10-23T17:08:02.586Z,21.82
2022-10-23T17:10:29.908Z,21.75
2022-10-23T17:12:57.087Z,21.84
2022-10-23T17:15:24.564Z,21.73
2022-10-23T17:17:51.892Z,21.80
2022-10-23T17:20:19.175Z,21.70
2022-10-23T17:22:46.341Z,21.58
2022-10-23T17:25:13.953Z,21.45
2022-10-23T17:27:42.780Z,21.62
2022-10-23T17:30:12.813Z,21.52
2022-10-23T17:32:40.301Z,21.64
2022-10-23T17:35:07.776Z,21.42
2022-10-23T17:37:35.098Z,21.49
2022-10-23T17:40:02.573Z,21.50
2022-10-23T17:42:30.005Z,21.51
2022-10-23T17:44:57.230Z,21.43
2022-10-23T17:47:24.535Z,21.42
2022-10-23T17:49:51.740Z,21.22
2022-10-23T17:52:19.019Z,21.29
2022-10-23T17:54:46.202Z,21.40
2022-10-23T17:57:13.499Z,21.31
2022-10-23T17:59:40.761Z,21.03
2022-10-23T18:02:12.957Z,21.23
2022-10-23T18:04:40.397Z,21.27
2022-10-23T18:07:07.844Z,21.21
2022-10-23T18:09:35.205Z,21.27
2022-10-23T18:12:02.419Z,21.17
2022-10-23T18:14:29.916Z,21.03
2022-10-23T18:16:57.252Z,21.10
2022-10-23T18:19:24.472Z,21.00
2022-10-23T18:21:51.924Z,20.81
2022-10-23T18:24:19.450Z,20.91
2022-10-23T18:26:48.092Z,21.02
2022-10-23T18:29:17.337Z,20.97
2022-10-23T18:31:45.660Z,20.86
2022-10-23T18:34:21.272Z,20.89
2022-10-23T18:36:51.403Z,20.89
2022-10-23T18:39:22.814Z,20.84
2022-10-23T18:41:53.441Z,20.59
2022-10-23T18:44:22.512Z,20.74
2022-10-23T18:46:50.622Z,20.82
2022-10-23T18:49:18.931Z,20.86
2022-10-23T18:51:46.195Z,20.70
2022-10-23T18:54:15.375Z,20.62
2022-10-23T18:56:43.881Z,21.03
2022-10-23T18:59:17.114Z,20.77
2022-10-23T19:01:44.642Z,20.67
2022-10-23T19:04:14.101Z,20.73
2022-10-23T19:06:42.082Z,20.57
2022-10-23T19:09:11.229Z,20.40
2022-10-23T19:11:38.632Z,20.44
2022-10-23T19:14:06.411Z,20.36
2022-10-23T19:16:39.171Z,20.38
2022-10-23T19:19:21.898Z,20.38
2022-10-23T19:21:50.091Z,20.22
2022-10-23T19:24:23.695Z,20.25
2022-10-23T19:26:51.118Z,20.24
2022-10-23T19:29:20.863Z,20.21
2022-10-23T19:31:49.475Z,20.27
2022-10-23T19:34:20.009Z,20.20
2022-10-23T19:36:48.262Z,20.17
2022-10-23T19:39:16.237Z,20.14
2022-10-23T19:41:44.221Z,20.16
2022-10-23T19:44:13.398Z,20.26
2022-10-23T19:46:40.739Z,20.11
2022-10-23T19:49:09.334Z,20.01
2022-10-23T19:51:37.161Z,19.95
2022-10-23T19:54:04.892Z,19.86
2022-10-23T19:56:32.335Z,19.62
2022-10-23T19:58:59.716Z,19.40
2022-10-23T20:01:27.192Z,19.37
2022-10-23T20:03:55.681Z,19.31
2022-10-23T20:06:29.183Z,19.05
2022-10-23T20:08:56.810Z,19.21
2022-10-23T20:11:28.061Z,19.33
2022-10-23T20:13:55.801Z,19.32
2022-10-23T20:16:25.719Z,19.34
2022-10-23T20:18:53.432Z,19.27
2022-10-23T20:21:20.814Z,19.30
2022-10-23T20:23:57.124Z,19.33
2022-10-23T20:26:27.172Z,19.28
2022-10-23T20:28:56.493Z,19.18
2022-10-23T20:31:25.326Z,19.09
2022-10-23T20:33:53.184Z,19.13
2022-10-23T20:36:28.612Z,19.03
2022-10-23T20:38:57.010Z,19.19
2022-10-23T20:41:27.063Z,19.16
2022-10-23T20:43:58.325Z,19.14
2022-10-23T20:46:26.420Z,19.13
2022-10-23T20:48:54.097Z,19.05
2022-10-23T20:51:23.245Z,18.98
2022-10-23T20:53:51.423Z,18.95
2022-10-23T20:56:29.912Z,18.91
2022-10-23T20:58:58.830Z,19.00
2022-10-23T21:01:26.638Z,19.09
2022-10-23T21:03:57.034Z,19.11
2022-10-23T21:06:26.160Z,19.06
2022-10-23T21:08:57.609Z,19.17
2022-10-23T21:11:25.663Z,19.04
2022-10-23T21:13:53.573Z,19.05
2022-10-23T21:16:26.128Z,19.19
2022-10-23T21:18:56.854Z,19.23
2022-10-23T21:21:25.068Z,19.22
2022-10-23T21:23:53.956Z,19.39
2022-10-23T21:26:22.712Z,19.49
2022-10-23T21:29:00.952Z,19.54
2022-10-23T21:31:38.777Z,19.65
2022-10-23T21:34:06.218Z,19.62
2022-10-23T21:36:39.777Z,19.69
2022-10-23T21:39:10.938Z,19.66
2022-10-23T21:41:38.195Z,19.76
2022-10-23T21:44:05.754Z,19.66
2022-10-23T21:46:34.665Z,19.59
2022-10-23T21:49:02.207Z,19.57
2022-10-23T21:51:35.680Z,19.71
2022-10-23T21:54:04.509Z,19.78
2022-10-23T21:56:46.842Z,19.67
2022-10-23T21:59:16.552Z,19.60
2022-10-23T22:01:45.613Z,19.68
2022-10-23T22:04:14.722Z,19.73
2022-10-23T22:06:43.390Z,19.51
2022-10-23T22:09:13.552Z,19.73
2022-10-23T22:11:40.832Z,19.73
2022-10-23T22:14:08.094Z,19.89
2022-10-23T22:16:35.304Z,19.83
2022-10-23T22:19:02.822Z,19.77
2022-10-23T22:21:30.977Z,19.66
2022-10-23T22:24:00.395Z,19.69
2022-10-23T22:26:37.280Z,19.81
2022-10-23T22:29:07.024Z,19.56
2022-10-23T22:31:35.964Z,19.40
2022-10-23T22:34:13.373Z,19.44
2022-10-23T22:36:52.889Z,19.42
2022-10-23T22:39:20.207Z,19.36
2022-10-23T22:41:50.965Z,19.46
2022-10-23T22:44:21.447Z,19.37
2022-10-23T22:46:48.827Z,19.28
2022-10-23T22:49:16.488Z,19.24
2022-10-23T22:51:43.700Z,19.24
2022-10-23T22:54:11.026Z,19.14
2022-10-23T22:56:38.232Z,19.41
2022-10-23T22:59:05.739Z,19.34
2022-10-23T23:01:36.412Z,19.28
2022-10-23T23:04:14.077Z,19.23
2022-10-23T23:06:51.067Z,19.26
2022-10-23T23:09:18.788Z,19.21
2022-10-23T23:11:52.062Z,19.44
2022-10-23T23:14:23.639Z,19.29
2022-10-23T23:16:52.827Z,19.16
2022-10-23T23:19:22.467Z,19.49
2022-10-23T23:21:50.265Z,19.36
2022-10-23T23:24:17.508Z,19.23
2022-10-23T23:26:44.749Z,19.17
2022-10-23T23:29:12.271Z,19.21
2022-10-23T23:31:39.689Z,19.24
2022-10-23T23:34:07.003Z,19.10
2022-10-23T23:36:34.913Z,19.12
2022-10-23T23:41:35.011Z,19.07
2022-10-23T23:44:02.323Z,18.98
2022-10-23T23:46:29.502Z,19.10
2022-10-23T23:48:56.825Z,19.00
2022-10-23T23:51:25.272Z,19.00
2022-10-23T23:53:52.707Z,19.14
2022-10-23T23:56:20.736Z,18.92
2022-10-23T23:58:48.379Z,18.86
